Time;durP1;ratioP1;P1;durP2;ratioP2;P2;SDS_P1;SDS_P2;PMS_P1;PMS_P2;Temp;Humidity;BMP_temperature;BMP_pressure;BME280_temperature;BME280_humidity;BME280_pressure;Samples;Min_cycle;Max_cycle;Signal;HPM_P1;HPM_P2
2023/10/31 00:00:13;;;;;;;8.77;4.00;;;;;;;;;;5034420;28;20295;-87
2023/10/31 00:02:41;;;;;;;9.00;3.53;;;;;;;;;;5050900;28;20227;-86
2023/10/31 00:05:09;;;;;;;9.00;3.70;;;;;;;;;;5051723;28;20610;-85
2023/10/31 00:07:37;;;;;;;10.63;4.17;;;;;;;;;;5051924;28;20220;-85
2023/10/31 00:10:04;;;;;;;9.73;3.63;;;;;;;;;;5051918;28;20199;-86
2023/10/31 00:12:31;;;;;;;9.27;3.77;;;;;;;;;;5051588;28;20231;-86
2023/10/31 00:14:58;;;;;;;7.83;3.60;;;;;;;;;;5051056;28;20234;-86
2023/10/31 00:17:26;;;;;;;9.33;3.83;;;;;;;;;;5051448;28;20366;-86
2023/10/31 00:19:53;;;;;;;14.20;4.07;;;;;;;;;;5033074;28;20212;-86
2023/10/31 00:22:22;;;;;;;10.33;4.10;;;;;;;;;;5031906;28;20716;-86
2023/10/31 00:24:49;;;;;;;9.33;3.50;;;;;;;;;;5032168;28;20207;-87
2023/10/31 00:27:16;;;;;;;10.10;3.83;;;;;;;;;;5032164;28;20322;-86
2023/10/31 00:29:44;;;;;;;11.67;3.90;;;;;;;;;;5031697;28;20255;-85
2023/10/31 00:32:12;;;;;;;11.50;4.17;;;;;;;;;;5031246;28;20254;-85
2023/10/31 00:34:39;;;;;;;11.80;4.50;;;;;;;;;;5042241;28;20196;-86
2023/10/31 00:37:06;;;;;;;13.97;3.90;;;;;;;;;;5051466;28;20239;-85
2023/10/31 00:39:35;;;;;;;7.50;3.67;;;;;;;;;;5051221;28;20211;-85
2023/10/31 00:42:02;;;;;;;13.23;3.80;;;;;;;;;;5051646;28;20234;-86
2023/10/31 00:44:29;;;;;;;9.50;3.60;;;;;;;;;;5051259;28;20619;-86
2023/10/31 00:46:57;;;;;;;10.70;4.00;;;;;;;;;;5050857;28;20251;-86
2023/10/31 00:49:24;;;;;;;12.23;3.83;;;;;;;;;;5051362;28;20230;-85
2023/10/31 00:51:51;;;;;;;11.83;3.30;;;;;;;;;;5051114;28;20244;-85
2023/10/31 00:54:19;;;;;;;11.43;3.40;;;;;;;;;;5051225;28;20204;-86
2023/10/31 00:56:47;;;;;;;10.40;3.53;;;;;;;;;;5051321;28;20577;-84
2023/10/31 00:59:15;;;;;;;8.33;3.40;;;;;;;;;;5051287;28;20696;-86
2023/10/31 01:01:42;;;;;;;11.73;3.50;;;;;;;;;;5050494;28;20691;-85
2023/10/31 01:04:09;;;;;;;9.37;3.23;;;;;;;;;;5051325;28;20196;-85
2023/10/31 01:06:41;;;;;;;7.93;3.30;;;;;;;;;;5051059;28;20227;-86
2023/10/31 01:09:08;;;;;;;8.60;3.00;;;;;;;;;;5051402;28;20232;-86
2023/10/31 01:11:35;;;;;;;13.90;4.30;;;;;;;;;;5051118;28;20242;-86
2023/10/31 01:14:04;;;;;;;8.97;3.90;;;;;;;;;;5050995;28;20273;-86
2023/10/31 01:16:32;;;;;;;9.80;3.60;;;;;;;;;;5054535;28;20223;-86
2023/10/31 01:18:59;;;;;;;9.40;3.60;;;;;;;;;;5055108;28;20228;-86
2023/10/31 01:21:26;;;;;;;10.40;3.40;;;;;;;;;;5054850;28;20200;-85
2023/10/31 01:23:53;;;;;;;9.40;3.47;;;;;;;;;;5054477;28;20230;-86
2023/10/31 01:26:21;;;;;;;8.97;3.70;;;;;;;;;;5054898;28;20204;-86
2023/10/31 01:28:48;;;;;;;11.47;3.77;;;;;;;;;;5054478;28;20247;-85
2023/10/31 01:31:16;;;;;;;11.33;3.70;;;;;;;;;;5053974;28;20668;-86
2023/10/31 01:33:44;;;;;;;10.23;3.70;;;;;;;;;;5050972;28;20688;-86
2023/10/31 01:36:12;;;;;;;10.63;3.73;;;;;;;;;;5034456;28;20287;-86
2023/10/31 01:38:39;;;;;;;9.43;3.63;;;;;;;;;;5034592;28;20236;-86
2023/10/31 01:41:06;;;;;;;8.67;3.63;;;;;;;;;;5034407;28;20211;-86
2023/10/31 01:43:34;;;;;;;13.87;3.90;;;;;;;;;;5034519;28;20289;-86
2023/10/31 01:46:02;;;;;;;10.67;3.87;;;;;;;;;;5033966;28;20196;-86
2023/10/31 01:48:31;;;;;;;11.63;3.57;;;;;;;;;;5033832;28;20323;-86
2023/10/31 01:50:58;;;;;;;13.17;4.23;;;;;;;;;;5034217;28;20247;-86
2023/10/31 01:53:26;;;;;;;12.17;3.40;;;;;;;;;;5034032;28;20205;-86
2023/10/31 01:55:55;;;;;;;11.40;3.43;;;;;;;;;;5034110;28;20232;-85
2023/10/31 01:58:22;;;;;;;8.93;3.40;;;;;;;;;;5034324;28;20691;-86
2023/10/31 02:00:50;;;;;;;11.97;3.30;;;;;;;;;;5033672;28;20280;-85
2023/10/31 02:03:17;;;;;;;13.70;3.47;;;;;;;;;;5033848;28;20291;-86
2023/10/31 02:05:46;;;;;;;11.13;4.03;;;;;;;;;;5034229;28;20228;-85
2023/10/31 02:08:14;;;;;;;9.00;3.47;;;;;;;;;;5033630;28;20228;-85
2023/10/31 02:10:41;;;;;;;13.27;3.33;;;;;;;;;;5033837;28;20712;-87
2023/10/31 02:13:14;;;;;;;13.77;3.30;;;;;;;;;;5033534;28;20632;-85
2023/10/31 02:15:42;;;;;;;9.00;3.10;;;;;;;;;;5033724;28;20283;-85
2023/10/31 02:18:09;;;;;;;10.53;3.33;;;;;;;;;;5033551;28;20634;-86
2023/10/31 02:20:36;;;;;;;10.20;3.33;;;;;;;;;;5034187;28;20237;-86
2023/10/31 02:23:05;;;;;;;12.70;3.60;;;;;;;;;;5033711;28;20757;-85
2023/10/31 02:25:32;;;;;;;10.63;3.63;;;;;;;;;;5033010;28;20228;-86
2023/10/31 02:28:00;;;;;;;11.63;3.67;;;;;;;;;;5032963;28;20220;-86
2023/10/31 02:30:27;;;;;;;13.53;3.77;;;;;;;;;;5033340;28;20258;-86
2023/10/31 02:32:54;;;;;;;13.33;4.03;;;;;;;;;;5033346;28;20871;-85
2023/10/31 02:35:22;;;;;;;11.20;3.50;;;;;;;;;;5050090;28;20199;-85
2023/10/31 02:37:49;;;;;;;13.07;3.87;;;;;;;;;;5053062;28;20291;-85
2023/10/31 02:40:18;;;;;;;11.57;3.60;;;;;;;;;;5053220;28;20210;-85
2023/10/31 02:42:45;;;;;;;13.10;3.60;;;;;;;;;;5053038;28;20196;-86
2023/10/31 02:45:12;;;;;;;10.97;3.17;;;;;;;;;;5053384;28;20641;-86
2023/10/31 02:47:40;;;;;;;10.93;3.20;;;;;;;;;;5052879;28;20315;-85
2023/10/31 02:50:07;;;;;;;13.07;3.33;;;;;;;;;;5053049;28;20228;-86
2023/10/31 02:52:35;;;;;;;10.80;3.20;;;;;;;;;;5052701;28;20685;-87
2023/10/31 02:55:02;;;;;;;10.47;3.70;;;;;;;;;;5052597;28;20715;-85
2023/10/31 02:57:30;;;;;;;11.67;3.50;;;;;;;;;;5052373;28;20231;-85
2023/10/31 02:59:58;;;;;;;11.03;3.33;;;;;;;;;;5052829;28;20628;-86
2023/10/31 03:02:25;;;;;;;10.23;3.33;;;;;;;;;;5053491;28;20246;-85
2023/10/31 03:04:52;;;;;;;11.30;3.40;;;;;;;;;;5052451;28;20231;-85
2023/10/31 03:07:19;;;;;;;12.90;3.77;;;;;;;;;;5052894;28;20199;-85
2023/10/31 03:09:46;;;;;;;10.37;3.20;;;;;;;;;;5052553;28;20637;-85
2023/10/31 03:12:14;;;;;;;9.00;3.43;;;;;;;;;;5052651;28;20241;-86
2023/10/31 03:14:42;;;;;;;9.60;3.00;;;;;;;;;;5052790;28;20246;-85
2023/10/31 03:17:09;;;;;;;10.07;2.87;;;;;;;;;;5052410;28;20264;-86
2023/10/31 03:19:37;;;;;;;11.77;3.30;;;;;;;;;;5052526;28;20249;-86
2023/10/31 03:22:04;;;;;;;11.27;3.33;;;;;;;;;;5052487;28;20664;-85
2023/10/31 03:24:31;;;;;;;9.50;3.40;;;;;;;;;;5051190;28;20249;-85
2023/10/31 03:26:58;;;;;;;8.67;3.10;;;;;;;;;;5032082;28;20279;-85
2023/10/31 03:29:25;;;;;;;10.20;3.20;;;;;;;;;;5032286;28;20228;-85
2023/10/31 03:31:54;;;;;;;10.70;3.30;;;;;;;;;;5032193;28;20224;-85
2023/10/31 03:34:21;;;;;;;11.90;3.33;;;;;;;;;;5028306;28;20197;-84
2023/10/31 03:36:48;;;;;;;11.80;3.10;;;;;;;;;;5032325;28;20286;-86
2023/10/31 03:39:16;;;;;;;11.20;2.87;;;;;;;;;;5031936;28;20236;-86
2023/10/31 03:41:43;;;;;;;12.40;3.13;;;;;;;;;;5032287;28;20786;-85
2023/10/31 03:44:10;;;;;;;11.50;3.20;;;;;;;;;;5032592;28;20201;-86
2023/10/31 03:46:37;;;;;;;8.87;3.03;;;;;;;;;;5032663;28;20228;-86
2023/10/31 03:49:07;;;;;;;9.10;2.70;;;;;;;;;;5032174;28;20256;-85
2023/10/31 03:51:35;;;;;;;11.93;3.00;;;;;;;;;;5032493;28;20201;-86
2023/10/31 03:54:02;;;;;;;11.90;3.20;;;;;;;;;;5031868;28;20200;-86
2023/10/31 03:56:29;;;;;;;9.40;3.03;;;;;;;;;;5024222;28;20652;-86
2023/10/31 03:58:56;;;;;;;13.70;3.33;;;;;;;;;;5016000;28;20267;-87
2023/10/31 04:01:23;;;;;;;10.67;2.73;;;;;;;;;;5012517;28;20193;-87
2023/10/31 04:03:51;;;;;;;10.57;3.40;;;;;;;;;;5012826;28;20288;-87
2023/10/31 04:06:19;;;;;;;13.03;3.17;;;;;;;;;;5012901;28;20225;-87
2023/10/31 04:08:47;;;;;;;12.97;3.40;;;;;;;;;;5011923;28;20276;-86
2023/10/31 04:11:14;;;;;;;10.63;3.10;;;;;;;;;;5012062;28;20297;-86
2023/10/31 04:13:41;;;;;;;9.73;3.07;;;;;;;;;;5012456;28;20198;-86
2023/10/31 04:16:09;;;;;;;7.50;2.80;;;;;;;;;;5011958;28;20232;-86
2023/10/31 04:18:37;;;;;;;12.37;3.37;;;;;;;;;;5012001;28;20205;-85
2023/10/31 04:21:05;;;;;;;11.67;3.93;;;;;;;;;;5011881;28;20197;-84
2023/10/31 04:23:34;;;;;;;9.47;3.40;;;;;;;;;;5011413;28;20270;-86
2023/10/31 04:26:01;;;;;;;16.87;4.20;;;;;;;;;;5012076;28;20209;-86
2023/10/31 04:28:28;;;;;;;12.60;3.70;;;;;;;;;;5011838;28;20701;-84
2023/10/31 04:30:55;;;;;;;11.57;3.63;;;;;;;;;;5011834;28;20260;-85
2023/10/31 04:33:23;;;;;;;12.53;3.30;;;;;;;;;;5012292;28;20232;-86
2023/10/31 04:35:50;;;;;;;7.07;3.20;;;;;;;;;;5031996;28;20200;-85
2023/10/31 04:38:17;;;;;;;9.57;3.00;;;;;;;;;;5030941;28;20219;-86
2023/10/31 04:40:46;;;;;;;17.17;3.43;;;;;;;;;;5031770;28;20574;-85
2023/10/31 04:43:13;;;;;;;12.47;2.90;;;;;;;;;;5031721;28;20204;-85
2023/10/31 04:45:40;;;;;;;8.83;2.87;;;;;;;;;;5031407;28;20231;-86
2023/10/31 04:48:08;;;;;;;9.27;2.80;;;;;;;;;;5031270;28;20224;-86
2023/10/31 04:50:35;;;;;;;7.23;2.87;;;;;;;;;;5035805;28;20281;-84
2023/10/31 04:53:02;;;;;;;5.20;2.30;;;;;;;;;;5035230;28;20258;-85
2023/10/31 04:55:29;;;;;;;9.00;3.10;;;;;;;;;;5018002;28;20199;-86
2023/10/31 04:57:58;;;;;;;14.13;2.90;;;;;;;;;;5035379;28;20705;-86
2023/10/31 05:00:25;;;;;;;8.30;2.57;;;;;;;;;;5035029;28;20238;-86
2023/10/31 05:02:52;;;;;;;7.30;2.37;;;;;;;;;;5035566;28;20296;-86
2023/10/31 05:05:20;;;;;;;8.77;2.43;;;;;;;;;;5034901;28;20254;-86
2023/10/31 05:07:47;;;;;;;6.67;2.73;;;;;;;;;;5034875;28;20204;-85
2023/10/31 05:10:15;;;;;;;9.03;2.87;;;;;;;;;;5035380;28;20196;-86
2023/10/31 05:12:42;;;;;;;10.93;2.83;;;;;;;;;;5035034;28;20192;-86
2023/10/31 05:15:11;;;;;;;9.93;2.77;;;;;;;;;;5035140;28;20303;-86
2023/10/31 05:17:39;;;;;;;6.93;3.20;;;;;;;;;;5035275;28;20203;-86
2023/10/31 05:20:06;;;;;;;14.20;3.03;;;;;;;;;;5034825;28;20298;-86
2023/10/31 05:22:33;;;;;;;8.47;2.60;;;;;;;;;;5035011;28;20224;-85
2023/10/31 05:25:01;;;;;;;8.03;2.47;;;;;;;;;;5034976;28;20227;-85
2023/10/31 05:27:28;;;;;;;8.43;2.73;;;;;;;;;;5034784;28;20291;-86
2023/10/31 05:29:56;;;;;;;12.80;2.70;;;;;;;;;;5034419;28;20272;-86
2023/10/31 05:32:25;;;;;;;8.20;2.20;;;;;;;;;;5034971;28;20564;-86
2023/10/31 05:34:52;;;;;;;7.93;2.83;;;;;;;;;;5034660;28;20200;-85
2023/10/31 05:37:19;;;;;;;11.37;3.30;;;;;;;;;;5034240;28;20695;-85
2023/10/31 05:39:46;;;;;;;6.27;2.80;;;;;;;;;;5034175;28;20239;-85
2023/10/31 05:42:14;;;;;;;14.77;3.30;;;;;;;;;;5034682;28;20220;-85
2023/10/31 05:44:41;;;;;;;8.80;2.53;;;;;;;;;;5034670;28;20247;-85
2023/10/31 05:47:08;;;;;;;7.53;2.60;;;;;;;;;;5034237;28;20676;-85
2023/10/31 05:49:37;;;;;;;10.63;2.80;;;;;;;;;;5034233;28;20260;-86
2023/10/31 05:52:04;;;;;;;12.20;3.00;;;;;;;;;;5034024;28;20291;-85
2023/10/31 05:54:32;;;;;;;9.07;2.30;;;;;;;;;;5034351;28;20204;-85
2023/10/31 05:56:59;;;;;;;10.57;2.60;;;;;;;;;;5034133;28;20399;-85
2023/10/31 05:59:26;;;;;;;11.43;2.70;;;;;;;;;;5034510;28;20291;-86
2023/10/31 06:01:53;;;;;;;8.93;2.30;;;;;;;;;;5033608;28;20196;-85
2023/10/31 06:04:20;;;;;;;13.13;2.90;;;;;;;;;;5033808;28;20196;-86
2023/10/31 06:06:49;;;;;;;9.27;2.70;;;;;;;;;;5033816;28;20224;-86
2023/10/31 06:09:16;;;;;;;9.87;3.00;;;;;;;;;;5034215;28;20322;-86
2023/10/31 06:11:44;;;;;;;11.60;3.30;;;;;;;;;;5033544;28;20633;-86
2023/10/31 06:14:12;;;;;;;8.70;2.97;;;;;;;;;;5033906;28;20196;-85
2023/10/31 06:16:42;;;;;;;8.77;2.77;;;;;;;;;;5034032;28;20204;-85
2023/10/31 06:19:09;;;;;;;10.60;2.80;;;;;;;;;;5033420;28;20576;-88
2023/10/31 06:21:37;;;;;;;9.83;2.80;;;;;;;;;;5034844;28;20284;-87
2023/10/31 06:24:06;;;;;;;17.83;3.00;;;;;;;;;;5034489;28;20234;-87
2023/10/31 06:26:33;;;;;;;10.70;2.57;;;;;;;;;;5016189;28;20553;-84
2023/10/31 06:29:01;;;;;;;9.93;2.17;;;;;;;;;;5049341;28;20311;-88
2023/10/31 06:31:28;;;;;;;13.27;2.40;;;;;;;;;;5034341;28;20224;-87
2023/10/31 06:33:55;;;;;;;12.03;2.77;;;;;;;;;;5033782;28;20660;-84
2023/10/31 06:36:22;;;;;;;10.90;2.53;;;;;;;;;;5033532;28;20235;-83
2023/10/31 06:38:50;;;;;;;14.90;2.70;;;;;;;;;;5033414;28;20224;-84
2023/10/31 06:41:18;;;;;;;8.63;2.87;;;;;;;;;;5033820;28;20657;-84
2023/10/31 06:43:46;;;;;;;11.10;2.43;;;;;;;;;;5033032;28;20197;-84
2023/10/31 06:46:15;;;;;;;7.97;2.97;;;;;;;;;;5032989;28;20808;-85
2023/10/31 06:48:42;;;;;;;12.50;3.17;;;;;;;;;;5032772;28;20220;-84
2023/10/31 06:51:09;;;;;;;10.80;3.07;;;;;;;;;;5032688;28;20220;-84
2023/10/31 06:53:36;;;;;;;11.33;3.33;;;;;;;;;;5033150;28;20281;-84
2023/10/31 06:56:04;;;;;;;10.07;3.63;;;;;;;;;;5033206;28;20246;-83
2023/10/31 06:58:32;;;;;;;14.77;4.43;;;;;;;;;;5032317;28;20236;-83
2023/10/31 07:01:00;;;;;;;12.80;3.47;;;;;;;;;;5032065;28;20572;-84
2023/10/31 07:03:27;;;;;;;8.00;3.23;;;;;;;;;;5032189;28;20212;-83
2023/10/31 07:05:56;;;;;;;8.57;3.30;;;;;;;;;;5032663;28;20224;-84
2023/10/31 07:08:23;;;;;;;14.10;4.33;;;;;;;;;;5033142;28;20303;-84
2023/10/31 07:10:50;;;;;;;20.90;6.60;;;;;;;;;;5032764;28;20869;-84
2023/10/31 07:13:17;;;;;;;19.03;5.70;;;;;;;;;;5032427;28;20695;-84
2023/10/31 07:15:46;;;;;;;12.70;5.57;;;;;;;;;;5031746;28;20284;-84
2023/10/31 07:18:13;;;;;;;16.70;5.37;;;;;;;;;;5031863;28;20193;-85
2023/10/31 07:20:41;;;;;;;12.37;5.50;;;;;;;;;;5032450;28;20247;-84
2023/10/31 07:23:08;;;;;;;16.30;4.50;;;;;;;;;;5032158;28;20692;-84
2023/10/31 07:25:35;;;;;;;9.67;3.80;;;;;;;;;;5031791;28;20299;-84
2023/10/31 07:28:02;;;;;;;15.33;4.53;;;;;;;;;;5029054;28;20582;-84
2023/10/31 07:30:30;;;;;;;14.60;4.10;;;;;;;;;;5031732;28;20271;-84
2023/10/31 07:32:58;;;;;;;14.63;3.57;;;;;;;;;;5031912;28;20223;-83
2023/10/31 07:35:25;;;;;;;11.60;3.47;;;;;;;;;;5032010;28;20655;-80
2023/10/31 07:37:53;;;;;;;12.83;3.33;;;;;;;;;;5032068;28;20196;-84
2023/10/31 07:40:20;;;;;;;10.90;3.13;;;;;;;;;;5012100;28;20595;-84
2023/10/31 07:42:47;;;;;;;9.47;2.83;;;;;;;;;;5012238;28;20257;-83
2023/10/31 07:45:14;;;;;;;11.53;2.80;;;;;;;;;;5017526;28;20229;-83
2023/10/31 07:47:41;;;;;;;10.77;2.60;;;;;;;;;;5020680;28;20204;-84
2023/10/31 07:50:13;;;;;;;8.47;2.50;;;;;;;;;;5030049;28;20242;-83
2023/10/31 07:52:40;;;;;;;10.20;2.70;;;;;;;;;;5032100;28;20204;-83
2023/10/31 07:55:07;;;;;;;8.27;2.30;;;;;;;;;;5031519;28;20243;-83
2023/10/31 07:57:35;;;;;;;9.10;2.30;;;;;;;;;;5030981;28;20699;-82
2023/10/31 08:00:02;;;;;;;9.23;2.33;;;;;;;;;;5026166;28;20294;-82
2023/10/31 08:02:30;;;;;;;9.48;2.67;;;;;;;;;;5031338;28;20192;-82
2023/10/31 08:04:57;;;;;;;7.72;2.50;;;;;;;;;;5031730;28;20288;-83
2023/10/31 08:07:29;;;;;;;7.40;2.90;;;;;;;;;;5030856;28;20291;-82
2023/10/31 08:09:57;;;;;;;7.85;2.50;;;;;;;;;;5030866;28;20260;-82
2023/10/31 08:12:24;;;;;;;9.07;2.63;;;;;;;;;;5030737;28;20201;-82
2023/10/31 08:14:51;;;;;;;8.00;2.50;;;;;;;;;;5028720;28;20772;-82
2023/10/31 08:17:19;;;;;;;9.57;2.70;;;;;;;;;;5020827;28;20318;-82
2023/10/31 08:19:46;;;;;;;8.07;2.13;;;;;;;;;;5050365;28;20330;-82
2023/10/31 08:22:13;;;;;;;8.63;2.38;;;;;;;;;;5050406;28;20634;-83
2023/10/31 08:24:42;;;;;;;8.40;2.53;;;;;;;;;;5050217;28;20623;-82
2023/10/31 08:27:10;;;;;;;8.05;2.28;;;;;;;;;;5051317;28;20246;-82
2023/10/31 08:29:37;;;;;;;8.18;2.60;;;;;;;;;;5051315;28;20232;-83
2023/10/31 08:32:05;;;;;;;10.20;3.20;;;;;;;;;;5051033;28;20210;-82
2023/10/31 08:34:32;;;;;;;12.75;3.50;;;;;;;;;;5040667;28;20295;-82
2023/10/31 08:37:00;;;;;;;8.75;2.85;;;;;;;;;;5031093;28;20303;-81
2023/10/31 08:39:27;;;;;;;7.72;3.40;;;;;;;;;;5031804;28;20204;-83
2023/10/31 08:41:56;;;;;;;10.38;3.20;;;;;;;;;;5031295;28;20563;-82
2023/10/31 08:44:23;;;;;;;9.18;3.08;;;;;;;;;;5031383;28;20224;-82
2023/10/31 08:46:51;;;;;;;8.18;3.33;;;;;;;;;;5031369;28;20303;-81
2023/10/31 08:49:18;;;;;;;11.63;3.30;;;;;;;;;;5031431;28;20226;-82
2023/10/31 08:51:46;;;;;;;8.00;2.80;;;;;;;;;;5031121;28;20291;-82
2023/10/31 08:54:13;;;;;;;9.80;3.10;;;;;;;;;;5032979;28;20246;-83
2023/10/31 08:56:40;;;;;;;8.90;2.47;;;;;;;;;;5050593;28;20258;-82
2023/10/31 08:59:09;;;;;;;10.70;2.72;;;;;;;;;;5050689;28;20226;-82
2023/10/31 09:01:36;;;;;;;10.73;2.45;;;;;;;;;;5051367;28;20322;-82
2023/10/31 09:04:03;;;;;;;8.93;2.70;;;;;;;;;;5050986;28;20196;-82
2023/10/31 09:06:30;;;;;;;12.75;3.38;;;;;;;;;;5050525;28;20216;-82
2023/10/31 09:08:58;;;;;;;7.25;2.63;;;;;;;;;;5051053;28;20278;-83
2023/10/31 09:11:25;;;;;;;9.57;2.95;;;;;;;;;;5050892;28;20318;-82
2023/10/31 09:13:52;;;;;;;11.63;3.33;;;;;;;;;;5050793;28;20227;-82
2023/10/31 09:16:21;;;;;;;7.82;3.05;;;;;;;;;;5051219;28;20196;-82
2023/10/31 09:18:48;;;;;;;10.77;2.65;;;;;;;;;;5041523;28;20200;-82
2023/10/31 09:21:15;;;;;;;7.57;2.45;;;;;;;;;;5030792;28;20211;-83
2023/10/31 09:23:42;;;;;;;6.47;2.58;;;;;;;;;;5031231;28;20231;-82
2023/10/31 09:26:09;;;;;;;9.60;2.72;;;;;;;;;;5031240;28;20239;-81
2023/10/31 09:28:39;;;;;;;10.85;2.70;;;;;;;;;;5030625;28;20228;-83
2023/10/31 09:31:06;;;;;;;13.07;2.90;;;;;;;;;;5030701;28;20256;-82
2023/10/31 09:33:35;;;;;;;12.60;2.65;;;;;;;;;;5030632;28;20672;-83
2023/10/31 09:36:02;;;;;;;9.57;2.63;;;;;;;;;;5032405;28;20283;-82
2023/10/31 09:38:29;;;;;;;8.48;2.88;;;;;;;;;;5034515;28;20728;-83
2023/10/31 09:40:56;;;;;;;9.27;2.65;;;;;;;;;;5034294;28;20222;-81
2023/10/31 09:43:24;;;;;;;8.00;2.40;;;;;;;;;;5034376;28;20288;-83
2023/10/31 09:45:51;;;;;;;9.73;2.30;;;;;;;;;;5034286;28;20611;-82
2023/10/31 09:48:19;;;;;;;13.10;2.67;;;;;;;;;;5034154;28;20205;-83
2023/10/31 09:50:48;;;;;;;11.05;2.60;;;;;;;;;;5034419;28;20375;-82
2023/10/31 09:53:16;;;;;;;9.10;2.30;;;;;;;;;;5034063;28;20291;-83
2023/10/31 09:55:44;;;;;;;9.07;2.45;;;;;;;;;;5033881;28;20193;-83
2023/10/31 09:58:11;;;;;;;9.32;2.15;;;;;;;;;;5033582;28;20234;-83
2023/10/31 10:00:40;;;;;;;8.80;2.08;;;;;;;;;;5034442;28;20279;-83
2023/10/31 10:03:09;;;;;;;9.75;1.92;;;;;;;;;;5034208;28;20208;-82
2023/10/31 10:05:36;;;;;;;10.25;2.50;;;;;;;;;;5033982;28;20196;-83
2023/10/31 10:08:06;;;;;;;9.52;2.17;;;;;;;;;;5033920;28;20236;-83
2023/10/31 10:10:34;;;;;;;11.95;2.53;;;;;;;;;;5034018;28;20315;-83
2023/10/31 10:13:02;;;;;;;8.80;2.28;;;;;;;;;;5033253;28;20197;-82
2023/10/31 10:15:30;;;;;;;9.93;2.25;;;;;;;;;;5033534;28;20197;-83
2023/10/31 10:17:57;;;;;;;9.20;2.00;;;;;;;;;;5034205;28;20228;-82
2023/10/31 10:20:24;;;;;;;11.50;2.40;;;;;;;;;;5033343;28;20192;-83
2023/10/31 10:22:51;;;;;;;9.93;2.45;;;;;;;;;;5033711;28;20597;-82
2023/10/31 10:25:20;;;;;;;8.10;2.10;;;;;;;;;;5033396;28;20228;-83
2023/10/31 10:27:48;;;;;;;9.07;2.42;;;;;;;;;;5033221;28;20224;-84
2023/10/31 10:30:16;;;;;;;10.73;3.20;;;;;;;;;;5033317;28;20236;-83
2023/10/31 10:32:43;;;;;;;10.30;2.63;;;;;;;;;;5033937;28;20287;-81
2023/10/31 10:35:10;;;;;;;8.73;2.28;;;;;;;;;;5033190;28;20212;-83
2023/10/31 10:37:39;;;;;;;11.20;2.50;;;;;;;;;;5033388;28;20575;-83
2023/10/31 10:40:08;;;;;;;11.98;2.70;;;;;;;;;;5033089;28;20207;-83
2023/10/31 10:42:43;;;;;;;9.07;2.45;;;;;;;;;;5033000;28;20235;-83
2023/10/31 10:45:12;;;;;;;12.93;2.88;;;;;;;;;;5033070;28;20206;-83
2023/10/31 10:47:40;;;;;;;8.35;2.53;;;;;;;;;;5032990;28;20283;-83
2023/10/31 10:50:08;;;;;;;12.02;2.20;;;;;;;;;;5033296;28;20303;-83
2023/10/31 10:52:37;;;;;;;7.20;1.90;;;;;;;;;;5032958;28;20203;-84
2023/10/31 10:55:07;;;;;;;7.22;1.75;;;;;;;;;;5032806;28;20254;-83
2023/10/31 10:57:39;;;;;;;6.63;1.77;;;;;;;;;;5032887;28;20199;-84
2023/10/31 11:00:12;;;;;;;8.75;1.67;;;;;;;;;;5032783;28;20196;-83
2023/10/31 11:02:40;;;;;;;5.90;1.98;;;;;;;;;;5032830;28;20239;-83
2023/10/31 11:05:08;;;;;;;10.05;2.00;;;;;;;;;;5032974;28;20196;-84
2023/10/31 11:07:35;;;;;;;9.02;1.90;;;;;;;;;;5032842;28;20203;-83
2023/10/31 11:10:04;;;;;;;14.07;2.88;;;;;;;;;;5032563;28;20224;-84
2023/10/31 11:12:32;;;;;;;11.20;2.25;;;;;;;;;;5032373;28;20212;-82
2023/10/31 11:15:01;;;;;;;7.80;2.25;;;;;;;;;;5031236;28;20208;-84
2023/10/31 11:17:30;;;;;;;7.32;1.90;;;;;;;;;;5029342;28;20292;-83
2023/10/31 11:19:58;;;;;;;11.32;2.38;;;;;;;;;;5031068;28;20270;-81
2023/10/31 11:22:25;;;;;;;11.55;2.10;;;;;;;;;;5026171;28;20215;-84
2023/10/31 11:24:52;;;;;;;10.45;2.20;;;;;;;;;;5027624;28;20205;-82
2023/10/31 11:27:20;;;;;;;14.65;2.53;;;;;;;;;;5029198;28;20204;-82
2023/10/31 11:29:49;;;;;;;11.90;2.15;;;;;;;;;;5026705;28;20232;-83
2023/10/31 11:32:18;;;;;;;11.15;2.25;;;;;;;;;;5026958;28;20204;-83
2023/10/31 11:34:45;;;;;;;8.90;1.85;;;;;;;;;;5028737;28;20243;-83
2023/10/31 11:37:26;;;;;;;10.13;1.90;;;;;;;;;;5027294;28;20695;-84
2023/10/31 11:40:12;;;;;;;7.70;1.85;;;;;;;;;;5028924;28;20216;-83
2023/10/31 11:42:39;;;;;;;7.53;2.50;;;;;;;;;;5032378;28;20208;-84
2023/10/31 11:45:09;;;;;;;12.73;3.20;;;;;;;;;;5030981;28;20688;-81
2023/10/31 11:47:49;;;;;;;11.77;2.45;;;;;;;;;;5032936;28;20231;-84
2023/10/31 11:50:16;;;;;;;11.98;2.53;;;;;;;;;;5034509;28;20311;-84
2023/10/31 11:52:43;;;;;;;7.82;1.90;;;;;;;;;;5040297;28;20242;-84
2023/10/31 11:55:11;;;;;;;9.43;1.90;;;;;;;;;;5051125;28;20253;-82
2023/10/31 11:57:38;;;;;;;12.43;1.95;;;;;;;;;;5037638;28;20719;-81
2023/10/31 12:00:07;;;;;;;7.65;2.08;;;;;;;;;;5033131;28;20285;-84
2023/10/31 12:02:34;;;;;;;10.32;2.55;;;;;;;;;;5032424;28;20661;-84
2023/10/31 12:05:14;;;;;;;8.25;2.05;;;;;;;;;;5031468;28;20204;-82
2023/10/31 12:07:44;;;;;;;11.45;2.45;;;;;;;;;;5030999;28;20196;-82
2023/10/31 12:10:12;;;;;;;10.13;2.88;;;;;;;;;;5032174;28;20235;-82
2023/10/31 12:12:39;;;;;;;13.70;3.45;;;;;;;;;;5032599;28;20231;-83
2023/10/31 12:15:07;;;;;;;9.60;2.55;;;;;;;;;;5037484;28;20292;-83
2023/10/31 12:17:35;;;;;;;10.70;2.10;;;;;;;;;;5031348;28;20197;-83
2023/10/31 12:20:05;;;;;;;7.68;1.90;;;;;;;;;;5025817;28;20232;-84
2023/10/31 12:22:33;;;;;;;10.40;2.17;;;;;;;;;;5051216;28;20757;-84
2023/10/31 12:25:03;;;;;;;9.52;2.22;;;;;;;;;;5044511;28;20196;-84
2023/10/31 12:27:44;;;;;;;8.40;1.95;;;;;;;;;;5039811;28;20235;-84
2023/10/31 12:30:11;;;;;;;9.40;2.40;;;;;;;;;;5030771;28;20708;-85
2023/10/31 12:32:39;;;;;;;9.15;1.80;;;;;;;;;;5031270;28;20212;-84
2023/10/31 12:35:06;;;;;;;10.98;2.05;;;;;;;;;;5030907;28;20208;-83
2023/10/31 12:37:35;;;;;;;6.43;1.90;;;;;;;;;;5030015;28;20223;-83
2023/10/31 12:40:04;;;;;;;9.57;2.08;;;;;;;;;;5031046;28;20196;-84
2023/10/31 12:42:32;;;;;;;8.25;2.42;;;;;;;;;;5031410;28;20730;-84
2023/10/31 12:45:00;;;;;;;8.23;2.15;;;;;;;;;;5027562;28;20761;-83
2023/10/31 12:47:27;;;;;;;11.10;2.42;;;;;;;;;;5031537;28;20230;-84
2023/10/31 12:50:08;;;;;;;8.63;2.13;;;;;;;;;;5030924;28;20231;-84
2023/10/31 12:52:50;;;;;;;8.57;2.30;;;;;;;;;;5030674;28;20259;-85
2023/10/31 12:55:20;;;;;;;9.25;2.80;;;;;;;;;;5030107;28;20204;-83
2023/10/31 12:57:47;;;;;;;9.63;2.28;;;;;;;;;;5030776;28;20246;-84
2023/10/31 13:00:15;;;;;;;14.75;2.70;;;;;;;;;;5031616;28;20661;-82
2023/10/31 13:02:42;;;;;;;7.68;2.20;;;;;;;;;;5031020;28;20213;-84
2023/10/31 13:05:10;;;;;;;10.90;2.22;;;;;;;;;;5030985;28;20207;-84
2023/10/31 13:07:37;;;;;;;9.45;2.63;;;;;;;;;;5031073;28;20288;-84
2023/10/31 13:10:05;;;;;;;9.52;2.92;;;;;;;;;;5032861;28;20200;-84
2023/10/31 13:12:34;;;;;;;12.02;3.03;;;;;;;;;;5035348;28;20228;-84
2023/10/31 13:15:01;;;;;;;9.30;2.85;;;;;;;;;;5035023;28;20205;-84
2023/10/31 13:17:31;;;;;;;12.25;2.97;;;;;;;;;;5034839;28;20283;-83
2023/10/31 13:19:58;;;;;;;13.45;3.00;;;;;;;;;;5034458;28;20250;-84
2023/10/31 13:22:25;;;;;;;13.30;2.85;;;;;;;;;;5034917;28;20196;-84
2023/10/31 13:24:52;;;;;;;12.02;2.53;;;;;;;;;;5034443;28;20239;-84
2023/10/31 13:27:20;;;;;;;12.75;2.67;;;;;;;;;;5034797;28;20708;-84
2023/10/31 13:29:49;;;;;;;12.45;2.45;;;;;;;;;;5032830;28;20795;-83
2023/10/31 13:32:17;;;;;;;12.50;2.30;;;;;;;;;;5034873;28;20239;-83
2023/10/31 13:34:44;;;;;;;10.93;2.35;;;;;;;;;;5034240;28;20644;-84
2023/10/31 13:37:11;;;;;;;12.00;2.42;;;;;;;;;;5034360;28;20645;-84
2023/10/31 13:39:38;;;;;;;9.20;1.90;;;;;;;;;;5034495;28;20197;-84
2023/10/31 13:42:06;;;;;;;10.93;1.85;;;;;;;;;;5034320;28;20677;-83
2023/10/31 13:44:33;;;;;;;14.88;2.30;;;;;;;;;;5034153;28;20232;-83
2023/10/31 13:47:02;;;;;;;8.95;2.33;;;;;;;;;;5034328;28;20231;-84
2023/10/31 13:49:29;;;;;;;12.45;2.47;;;;;;;;;;5033677;28;20543;-84
2023/10/31 13:51:56;;;;;;;8.98;2.05;;;;;;;;;;5034037;28;20682;-84
2023/10/31 13:54:23;;;;;;;8.65;2.10;;;;;;;;;;5034371;28;20235;-84
2023/10/31 13:56:50;;;;;;;9.27;2.35;;;;;;;;;;5034299;28;20283;-84
2023/10/31 13:59:19;;;;;;;10.20;2.80;;;;;;;;;;5033825;28;20669;-84
2023/10/31 14:01:46;;;;;;;12.73;2.88;;;;;;;;;;5034188;28;20193;-84
2023/10/31 14:04:15;;;;;;;14.80;3.63;;;;;;;;;;5033654;28;20196;-84
2023/10/31 14:06:43;;;;;;;13.93;2.80;;;;;;;;;;5034047;28;20708;-84
2023/10/31 14:09:11;;;;;;;12.70;2.70;;;;;;;;;;5033800;28;20228;-84
2023/10/31 14:11:39;;;;;;;12.00;3.30;;;;;;;;;;5034123;28;20227;-84
2023/10/31 14:14:09;;;;;;;10.57;3.03;;;;;;;;;;5034139;28;20200;-84
2023/10/31 14:16:36;;;;;;;14.38;2.63;;;;;;;;;;5033653;28;20200;-84
2023/10/31 14:19:03;;;;;;;21.65;3.67;;;;;;;;;;5032657;28;20192;-84
2023/10/31 14:21:32;;;;;;;13.77;2.38;;;;;;;;;;5033443;28;20243;-84
2023/10/31 14:23:59;;;;;;;12.65;2.47;;;;;;;;;;5033391;28;20250;-84
2023/10/31 14:26:26;;;;;;;15.20;2.58;;;;;;;;;;5033627;28;20287;-83
2023/10/31 14:28:53;;;;;;;10.90;2.33;;;;;;;;;;5033458;28;20228;-81
2023/10/31 14:31:21;;;;;;;15.98;3.25;;;;;;;;;;5031820;28;20250;-85
2023/10/31 14:33:49;;;;;;;13.35;3.00;;;;;;;;;;5031866;28;20500;-82
2023/10/31 14:36:16;;;;;;;15.75;2.75;;;;;;;;;;5033176;28;20627;-83
2023/10/31 14:38:45;;;;;;;14.57;2.35;;;;;;;;;;5033542;28;20242;-84